sensor_id;sensor_type;location;lat;lon;timestamp;pressure;altitude;pressure_sealevel;temperature;humidity
19112;BME280;9688;51.906;8.376;2023-02-28T00:01:22;102233.66;;;1.98;71.61
19112;BME280;9688;51.906;8.376;2023-02-28T00:04:08;102236.13;;;1.94;71.92
19112;BME280;9688;51.906;8.376;2023-02-28T00:06:55;102228.09;;;1.85;71.84
19112;BME280;9688;51.906;8.376;2023-02-28T00:09:42;102233.06;;;1.74;73.01
19112;BME280;9688;51.906;8.376;2023-02-28T00:12:29;102231.97;;;1.64;73.10
19112;BME280;9688;51.906;8.376;2023-02-28T00:15:15;102224.97;;;1.62;73.31
19112;BME280;9688;51.906;8.376;2023-02-28T00:18:01;102226.69;;;1.61;73.87
19112;BME280;9688;51.906;8.376;2023-02-28T00:20:47;102223.16;;;1.59;73.55
19112;BME280;9688;51.906;8.376;2023-02-28T00:23:35;102221.28;;;1.53;74.04
19112;BME280;9688;51.906;8.376;2023-02-28T00:26:22;102217.69;;;1.48;74.52
19112;BME280;9688;51.906;8.376;2023-02-28T00:29:09;102220.16;;;1.44;74.51
19112;BME280;9688;51.906;8.376;2023-02-28T00:31:55;102221.06;;;1.44;75.01
19112;BME280;9688;51.906;8.376;2023-02-28T00:34:40;102222.94;;;1.50;74.81
19112;BME280;9688;51.906;8.376;2023-02-28T00:37:27;102229.97;;;1.54;74.73
19112;BME280;9688;51.906;8.376;2023-02-28T00:40:15;102226.66;;;1.60;74.40
19112;BME280;9688;51.906;8.376;2023-02-28T00:43:01;102234.59;;;1.66;74.52
19112;BME280;9688;51.906;8.376;2023-02-28T00:45:47;102225.22;;;1.72;74.36
19112;BME280;9688;51.906;8.376;2023-02-28T00:48:33;102222.72;;;1.77;74.46
19112;BME280;9688;51.906;8.376;2023-02-28T00:51:18;102223.56;;;1.76;74.58
19112;BME280;9688;51.906;8.376;2023-02-28T00:54:04;102220.97;;;1.76;74.41
19112;BME280;9688;51.906;8.376;2023-02-28T00:56:51;102222.72;;;1.77;74.51
19112;BME280;9688;51.906;8.376;2023-02-28T00:59:37;102227.94;;;1.77;74.56
19112;BME280;9688;51.906;8.376;2023-02-28T01:02:23;102234.00;;;1.76;74.46
19112;BME280;9688;51.906;8.376;2023-02-28T01:05:09;102232.19;;;1.72;75.01
19112;BME280;9688;51.906;8.376;2023-02-28T01:07:56;102232.97;;;1.69;74.94
19112;BME280;9688;51.906;8.376;2023-02-28T01:10:42;102225.09;;;1.68;74.68
19112;BME280;9688;51.906;8.376;2023-02-28T01:13:29;102227.59;;;1.63;74.86
19112;BME280;9688;51.906;8.376;2023-02-28T01:16:15;102236.31;;;1.64;74.89
19112;BME280;9688;51.906;8.376;2023-02-28T01:19:01;102227.59;;;1.63;74.78
19112;BME280;9688;51.906;8.376;2023-02-28T01:21:47;102226.69;;;1.61;74.73
19112;BME280;9688;51.906;8.376;2023-02-28T01:24:33;102221.44;;;1.60;74.71
19112;BME280;9688;51.906;8.376;2023-02-28T01:27:19;102217.03;;;1.57;74.56
19112;BME280;9688;51.906;8.376;2023-02-28T01:30:10;102222.22;;;1.55;74.44
19112;BME280;9688;51.906;8.376;2023-02-28T01:33:00;102222.16;;;1.52;74.29
19112;BME280;9688;51.906;8.376;2023-02-28T01:35:45;102221.16;;;1.47;74.55
19112;BME280;9688;51.906;8.376;2023-02-28T01:38:31;102215.88;;;1.44;74.58
19112;BME280;9688;51.906;8.376;2023-02-28T01:41:19;102214.00;;;1.40;74.92
19112;BME280;9688;51.906;8.376;2023-02-28T01:44:07;102213.88;;;1.34;74.85
19112;BME280;9688;51.906;8.376;2023-02-28T01:47:13;102211.19;;;1.31;74.88
19112;BME280;9688;51.906;8.376;2023-02-28T01:50:06;102218.00;;;1.27;74.90
19112;BME280;9688;51.906;8.376;2023-02-28T01:52:55;102212.72;;;1.23;74.99
19112;BME280;9688;51.906;8.376;2023-02-28T01:55:47;102216.97;;;1.19;75.36
19112;BME280;9688;51.906;8.376;2023-02-28T01:58:34;102221.28;;;1.19;75.50
19112;BME280;9688;51.906;8.376;2023-02-28T02:01:22;102215.16;;;1.17;75.14
19112;BME280;9688;51.906;8.376;2023-02-28T02:04:10;102216.84;;;1.15;75.17
19112;BME280;9688;51.906;8.376;2023-02-28T02:06:56;102223.81;;;1.16;75.13
19112;BME280;9688;51.906;8.376;2023-02-28T02:09:43;102226.47;;;1.17;74.83
19112;BME280;9688;51.906;8.376;2023-02-28T02:12:38;102219.56;;;1.19;74.82
19112;BME280;9688;51.906;8.376;2023-02-28T02:15:30;102219.66;;;1.22;74.90
19112;BME280;9688;51.906;8.376;2023-02-28T02:18:25;102217.13;;;1.25;74.57
19112;BME280;9688;51.906;8.376;2023-02-28T02:21:40;102221.47;;;1.26;74.68
19112;BME280;9688;51.906;8.376;2023-02-28T02:28:04;102218.00;;;1.26;74.61
19112;BME280;9688;51.906;8.376;2023-02-28T02:31:25;102212.66;;;1.21;74.61
19112;BME280;9688;51.906;8.376;2023-02-28T02:34:27;102216.13;;;1.20;74.51
19112;BME280;9688;51.906;8.376;2023-02-28T02:37:23;102210.94;;;1.22;74.57
19112;BME280;9688;51.906;8.376;2023-02-28T02:40:18;102212.72;;;1.23;75.06
19112;BME280;9688;51.906;8.376;2023-02-28T02:43:09;102210.94;;;1.22;74.44
19112;BME280;9688;51.906;8.376;2023-02-28T02:46:02;102204.91;;;1.23;74.19
19112;BME280;9688;51.906;8.376;2023-02-28T02:48:52;102210.09;;;1.23;74.58
19112;BME280;9688;51.906;8.376;2023-02-28T02:51:43;102216.06;;;1.19;74.28
19112;BME280;9688;51.906;8.376;2023-02-28T02:54:32;102222.00;;;1.13;74.78
19112;BME280;9688;51.906;8.376;2023-02-28T02:57:24;102213.28;;;1.11;74.53
19112;BME280;9688;51.906;8.376;2023-02-28T03:00:13;102212.38;;;1.10;74.66
19112;BME280;9688;51.906;8.376;2023-02-28T03:03:01;102214.97;;;1.09;74.87
19112;BME280;9688;51.906;8.376;2023-02-28T03:05:49;102213.16;;;1.08;74.75
19112;BME280;9688;51.906;8.376;2023-02-28T03:08:38;102215.75;;;1.06;74.54
19112;BME280;9688;51.906;8.376;2023-02-28T03:11:23;102217.47;;;1.06;74.36
19112;BME280;9688;51.906;8.376;2023-02-28T03:14:33;102220.81;;;1.00;74.71
19112;BME280;9688;51.906;8.376;2023-02-28T03:17:33;102216.41;;;0.99;75.00
19112;BME280;9688;51.906;8.376;2023-02-28T03:20:33;102218.06;;;0.96;74.91
19112;BME280;9688;51.906;8.376;2023-02-28T03:23:23;102217.19;;;0.95;74.82
19112;BME280;9688;51.906;8.376;2023-02-28T03:26:19;102217.13;;;0.92;75.04
19112;BME280;9688;51.906;8.376;2023-02-28T03:29:13;102215.25;;;0.88;75.01
19112;BME280;9688;51.906;8.376;2023-02-28T03:32:05;102216.97;;;0.86;75.27
19112;BME280;9688;51.906;8.376;2023-02-28T03:35:02;102216.91;;;0.84;75.51
19112;BME280;9688;51.906;8.376;2023-02-28T03:37:55;102210.75;;;0.82;75.23
19112;BME280;9688;51.906;8.376;2023-02-28T03:40:48;102212.44;;;0.80;75.61
19112;BME280;9688;51.906;8.376;2023-02-28T03:43:39;102214.09;;;0.77;75.72
19112;BME280;9688;51.906;8.376;2023-02-28T03:46:29;102213.06;;;0.72;75.44
19112;BME280;9688;51.906;8.376;2023-02-28T03:49:18;102210.38;;;0.69;75.93
19112;BME280;9688;51.906;8.376;2023-02-28T03:52:07;102215.56;;;0.67;75.95
19112;BME280;9688;51.906;8.376;2023-02-28T03:54:57;102218.09;;;0.65;76.13
19112;BME280;9688;51.906;8.376;2023-02-28T03:57:53;102217.19;;;0.63;76.00
19112;BME280;9688;51.906;8.376;2023-02-28T04:00:46;102211.97;;;0.63;75.89
19112;BME280;9688;51.906;8.376;2023-02-28T04:03:34;102209.34;;;0.62;76.10
19112;BME280;9688;51.906;8.376;2023-02-28T04:06:21;102205.91;;;0.63;75.88
19112;BME280;9688;51.906;8.376;2023-02-28T04:09:10;102220.63;;;0.62;76.08
19112;BME280;9688;51.906;8.376;2023-02-28T04:11:56;102220.63;;;0.62;76.09
19112;BME280;9688;51.906;8.376;2023-02-28T04:14:42;102212.81;;;0.62;75.97
19112;BME280;9688;51.906;8.376;2023-02-28T04:17:29;102215.38;;;0.61;75.69
19112;BME280;9688;51.906;8.376;2023-02-28T04:20:15;102219.59;;;0.56;75.56
19112;BME280;9688;51.906;8.376;2023-02-28T04:23:01;102216.84;;;0.51;76.34
19112;BME280;9688;51.906;8.376;2023-02-28T04:25:47;102214.19;;;0.50;76.18
19112;BME280;9688;51.906;8.376;2023-02-28T04:28:33;102221.13;;;0.49;76.55
19112;BME280;9688;51.906;8.376;2023-02-28T04:31:19;102217.56;;;0.46;76.85
19112;BME280;9688;51.906;8.376;2023-02-28T04:34:07;102214.00;;;0.42;76.57
19112;BME280;9688;51.906;8.376;2023-02-28T04:36:53;102213.84;;;0.37;76.57
19112;BME280;9688;51.906;8.376;2023-02-28T04:39:40;102217.22;;;0.35;76.81
19112;BME280;9688;51.906;8.376;2023-02-28T04:42:26;102212.03;;;0.35;76.14
19112;BME280;9688;51.906;8.376;2023-02-28T04:45:12;102213.84;;;0.37;76.53
19112;BME280;9688;51.906;8.376;2023-02-28T04:47:57;102203.50;;;0.39;76.18
19112;BME280;9688;51.906;8.376;2023-02-28T04:50:45;102217.38;;;0.39;76.08
19112;BME280;9688;51.906;8.376;2023-02-28T04:53:31;102205.25;;;0.40;75.79
19112;BME280;9688;51.906;8.376;2023-02-28T04:56:17;102210.44;;;0.40;76.15
19112;BME280;9688;51.906;8.376;2023-02-28T04:59:03;102216.44;;;0.37;76.24
19112;BME280;9688;51.906;8.376;2023-02-28T05:01:49;102219.91;;;0.36;76.24
19112;BME280;9688;51.906;8.376;2023-02-28T05:04:35;102213.75;;;0.34;76.01
19112;BME280;9688;51.906;8.376;2023-02-28T05:07:23;102211.97;;;0.33;76.69
19112;BME280;9688;51.906;8.376;2023-02-28T05:10:10;102215.41;;;0.32;76.15
19112;BME280;9688;51.906;8.376;2023-02-28T05:12:59;102216.22;;;0.30;76.59
19112;BME280;9688;51.906;8.376;2023-02-28T05:15:47;102217.09;;;0.30;76.75
19112;BME280;9688;51.906;8.376;2023-02-28T05:18:33;102221.38;;;0.28;76.66
19112;BME280;9688;51.906;8.376;2023-02-28T05:21:27;102227.38;;;0.26;77.38
19112;BME280;9688;51.906;8.376;2023-02-28T05:24:15;102229.91;;;0.24;77.18
19112;BME280;9688;51.906;8.376;2023-02-28T05:27:08;102231.59;;;0.22;77.05
19112;BME280;9688;51.906;8.376;2023-02-28T05:29:53;102230.75;;;0.23;77.23
19112;BME280;9688;51.906;8.376;2023-02-28T05:32:40;102231.63;;;0.24;77.31
19112;BME280;9688;51.906;8.376;2023-02-28T05:35:27;102235.97;;;0.23;77.98
19112;BME280;9688;51.906;8.376;2023-02-28T05:38:12;102230.69;;;0.20;77.64
19112;BME280;9688;51.906;8.376;2023-02-28T05:41:04;102240.19;;;0.19;77.91
19112;BME280;9688;51.906;8.376;2023-02-28T05:43:49;102231.50;;;0.19;77.82
19112;BME280;9688;51.906;8.376;2023-02-28T05:46:35;102237.59;;;0.19;77.65
19112;BME280;9688;51.906;8.376;2023-02-28T05:49:22;102237.53;;;0.18;77.79
19112;BME280;9688;51.906;8.376;2023-02-28T05:52:07;102245.28;;;0.16;77.75
19112;BME280;9688;51.906;8.376;2023-02-28T05:54:53;102240.06;;;0.16;78.14
19112;BME280;9688;51.906;8.376;2023-02-28T05:57:41;102233.91;;;0.13;78.50
19112;BME280;9688;51.906;8.376;2023-02-28T06:00:26;102233.88;;;0.11;78.54
19112;BME280;9688;51.906;8.376;2023-02-28T06:03:12;102238.25;;;0.12;78.73
19112;BME280;9688;51.906;8.376;2023-02-28T06:05:58;102233.03;;;0.12;78.49
19112;BME280;9688;51.906;8.376;2023-02-28T06:08:46;102235.63;;;0.12;78.19
19112;BME280;9688;51.906;8.376;2023-02-28T06:11:34;102243.44;;;0.12;78.25
19112;BME280;9688;51.906;8.376;2023-02-28T06:14:21;102240.84;;;0.12;78.64
19112;BME280;9688;51.906;8.376;2023-02-28T06:17:09;102241.63;;;0.10;78.22
19112;BME280;9688;51.906;8.376;2023-02-28T06:19:55;102243.28;;;0.08;78.91
19112;BME280;9688;51.906;8.376;2023-02-28T06:22:41;102246.72;;;0.07;78.70
19112;BME280;9688;51.906;8.376;2023-02-28T06:25:27;102238.09;;;0.08;78.55
19112;BME280;9688;51.906;8.376;2023-02-28T06:28:13;102246.88;;;0.11;78.93
19112;BME280;9688;51.906;8.376;2023-02-28T06:31:05;102240.94;;;0.15;78.72
19112;BME280;9688;51.906;8.376;2023-02-28T06:33:51;102248.03;;;0.21;78.23
19112;BME280;9688;51.906;8.376;2023-02-28T06:36:38;102250.72;;;0.24;78.17
19112;BME280;9688;51.906;8.376;2023-02-28T06:39:24;102244.81;;;0.30;78.11
19112;BME280;9688;51.906;8.376;2023-02-28T06:42:10;102257.03;;;0.32;78.42
19112;BME280;9688;51.906;8.376;2023-02-28T06:44:55;102253.72;;;0.36;78.16
19112;BME280;9688;51.906;8.376;2023-02-28T06:47:44;102258.13;;;0.39;77.53
19112;BME280;9688;51.906;8.376;2023-02-28T06:50:36;102253.03;;;0.43;78.04
19112;BME280;9688;51.906;8.376;2023-02-28T06:53:23;102260.97;;;0.48;77.86
19112;BME280;9688;51.906;8.376;2023-02-28T06:56:11;102268.00;;;0.51;77.67
19112;BME280;9688;51.906;8.376;2023-02-28T06:58:57;102266.34;;;0.54;77.79
19112;BME280;9688;51.906;8.376;2023-02-28T07:01:46;102269.09;;;0.59;77.38
19112;BME280;9688;51.906;8.376;2023-02-28T07:04:36;102271.81;;;0.63;77.25
19112;BME280;9688;51.906;8.376;2023-02-28T07:07:25;102272.94;;;0.72;77.62
19112;BME280;9688;51.906;8.376;2023-02-28T07:10:15;102279.75;;;0.98;76.66
19112;BME280;9688;51.906;8.376;2023-02-28T07:13:07;102274.81;;;1.41;76.19
19112;BME280;9688;51.906;8.376;2023-02-28T07:15:56;102284.25;;;1.70;75.48
19112;BME280;9688;51.906;8.376;2023-02-28T07:18:42;102285.19;;;1.74;75.46
19112;BME280;9688;51.906;8.376;2023-02-28T07:21:30;102289.53;;;1.72;75.00
19112;BME280;9688;51.906;8.376;2023-02-28T07:24:15;102286.88;;;1.70;75.08
19112;BME280;9688;51.906;8.376;2023-02-28T07:27:02;102291.19;;;1.70;74.92
19112;BME280;9688;51.906;8.376;2023-02-28T07:29:47;102289.47;;;1.70;74.86
19112;BME280;9688;51.906;8.376;2023-02-28T07:32:38;102288.66;;;1.73;74.64
19112;BME280;9688;51.906;8.376;2023-02-28T07:35:23;102301.69;;;1.73;74.42
19112;BME280;9688;51.906;8.376;2023-02-28T07:38:11;102305.19;;;1.73;74.64
19112;BME280;9688;51.906;8.376;2023-02-28T07:40:58;102297.50;;;1.79;74.14
19112;BME280;9688;51.906;8.376;2023-02-28T07:43:48;102292.44;;;1.86;73.71
19112;BME280;9688;51.906;8.376;2023-02-28T07:46:34;102299.56;;;1.93;73.34
19112;BME280;9688;51.906;8.376;2023-02-28T07:49:20;102302.31;;;1.97;73.03
19112;BME280;9688;51.906;8.376;2023-02-28T07:52:07;102292.00;;;2.04;72.50
19112;BME280;9688;51.906;8.376;2023-02-28T07:54:54;102298.97;;;2.05;72.03
19112;BME280;9688;51.906;8.376;2023-02-28T07:57:46;102293.03;;;2.10;71.81
19112;BME280;9688;51.906;8.376;2023-02-28T08:00:33;102294.88;;;2.14;71.33
19112;BME280;9688;51.906;8.376;2023-02-28T08:03:20;102296.81;;;2.23;70.67
19112;BME280;9688;51.906;8.376;2023-02-28T08:06:08;102301.41;;;2.35;70.28
19112;BME280;9688;51.906;8.376;2023-02-28T08:08:54;102301.66;;;2.45;69.78
19112;BME280;9688;51.906;8.376;2023-02-28T08:11:42;102296.63;;;2.55;68.85
19112;BME280;9688;51.906;8.376;2023-02-28T08:14:27;102295.13;;;2.64;67.79
19112;BME280;9688;51.906;8.376;2023-02-28T08:17:13;102299.66;;;2.73;67.97
19112;BME280;9688;51.906;8.376;2023-02-28T08:19:59;102300.75;;;2.83;66.64
19112;BME280;9688;51.906;8.376;2023-02-28T08:22:49;102299.22;;;2.94;65.52
19112;BME280;9688;51.906;8.376;2023-02-28T08:25:35;102290.69;;;3.04;65.61
19112;BME280;9688;51.906;8.376;2023-02-28T08:28:24;102290.91;;;3.15;65.33
19112;BME280;9688;51.906;8.376;2023-02-28T08:31:13;102293.72;;;3.24;64.44
19112;BME280;9688;51.906;8.376;2023-02-28T08:34:04;102294.78;;;3.35;63.45
19112;BME280;9688;51.906;8.376;2023-02-28T08:36:51;102296.69;;;3.46;63.63
19112;BME280;9688;51.906;8.376;2023-02-28T08:39:38;102294.22;;;3.53;62.52
19112;BME280;9688;51.906;8.376;2023-02-28T08:42:25;102296.13;;;3.62;61.91
19112;BME280;9688;51.906;8.376;2023-02-28T08:45:17;102284.97;;;3.72;62.49
19112;BME280;9688;51.906;8.376;2023-02-28T08:48:04;102285.94;;;3.79;61.83
19112;BME280;9688;51.906;8.376;2023-02-28T08:50:57;102295.59;;;3.83;60.89
19112;BME280;9688;51.906;8.376;2023-02-28T08:53:45;102290.50;;;3.91;60.90
19112;BME280;9688;51.906;8.376;2023-02-28T08:56:33;102299.41;;;4.03;61.01
19112;BME280;9688;51.906;8.376;2023-02-28T08:59:19;102296.09;;;4.14;59.65
19112;BME280;9688;51.906;8.376;2023-02-28T09:02:12;102290.09;;;4.22;59.23
19112;BME280;9688;51.906;8.376;2023-02-28T09:04:59;102302.44;;;4.31;59.27
19112;BME280;9688;51.906;8.376;2023-02-28T09:07:45;102295.53;;;4.36;58.50
19112;BME280;9688;51.906;8.376;2023-02-28T09:10:32;102307.88;;;4.45;58.58
19112;BME280;9688;51.906;8.376;2023-02-28T09:13:20;102302.59;;;4.42;58.01
19112;BME280;9688;51.906;8.376;2023-02-28T09:16:11;102302.56;;;4.39;57.73
19112;BME280;9688;51.906;8.376;2023-02-28T09:19:00;102293.84;;;4.40;57.65
19112;BME280;9688;51.906;8.376;2023-02-28T09:21:46;102292.09;;;4.40;58.30
19112;BME280;9688;51.906;8.376;2023-02-28T09:24:32;102286.97;;;4.46;57.70
19112;BME280;9688;51.906;8.376;2023-02-28T09:27:18;102288.03;;;4.61;57.46
19112;BME280;9688;51.906;8.376;2023-02-28T09:30:07;102282.97;;;4.76;56.38
19112;BME280;9688;51.906;8.376;2023-02-28T09:32:53;102278.72;;;4.87;55.96
19112;BME280;9688;51.906;8.376;2023-02-28T09:35:41;102284.97;;;4.97;56.26
19112;BME280;9688;51.906;8.376;2023-02-28T09:38:27;102289.50;;;5.12;55.48
19112;BME280;9688;51.906;8.376;2023-02-28T09:41:15;102287.00;;;5.23;55.23
19112;BME280;9688;51.906;8.376;2023-02-28T09:44:04;102290.59;;;5.32;55.70
19112;BME280;9688;51.906;8.376;2023-02-28T09:46:56;102288.03;;;5.40;54.74
19112;BME280;9688;51.906;8.376;2023-02-28T09:49:46;102283.75;;;5.48;54.15
19112;BME280;9688;51.906;8.376;2023-02-28T09:52:36;102287.31;;;5.52;55.25
19112;BME280;9688;51.906;8.376;2023-02-28T09:55:28;102289.06;;;5.53;54.40
19112;BME280;9688;51.906;8.376;2023-02-28T09:58:20;102292.53;;;5.49;54.49
19112;BME280;9688;51.906;8.376;2023-02-28T10:01:11;102276.84;;;5.58;54.06
19112;BME280;9688;51.906;8.376;2023-02-28T10:04:00;102288.41;;;5.77;53.49
19112;BME280;9688;51.906;8.376;2023-02-28T10:06:50;102290.31;;;5.93;53.69
19112;BME280;9688;51.906;8.376;2023-02-28T10:09:37;102289.47;;;5.97;53.74
19112;BME280;9688;51.906;8.376;2023-02-28T10:12:27;102297.34;;;6.00;52.52
19112;BME280;9688;51.906;8.376;2023-02-28T10:15:15;102300.81;;;5.98;53.31
19112;BME280;9688;51.906;8.376;2023-02-28T10:18:04;102303.44;;;5.98;52.41
19112;BME280;9688;51.906;8.376;2023-02-28T10:20:53;102305.22;;;5.96;53.19
19112;BME280;9688;51.906;8.376;2023-02-28T10:23:40;102298.97;;;5.89;53.15
19112;BME280;9688;51.906;8.376;2023-02-28T10:26:31;102298.97;;;5.86;53.18
19112;BME280;9688;51.906;8.376;2023-02-28T10:29:18;102299.84;;;5.87;53.31
19112;BME280;9688;51.906;8.376;2023-02-28T10:32:04;102294.63;;;5.91;53.21
19112;BME280;9688;51.906;8.376;2023-02-28T10:34:51;102299.06;;;5.94;52.86
19112;BME280;9688;51.906;8.376;2023-02-28T10:37:39;102293.72;;;5.89;53.51
19112;BME280;9688;51.906;8.376;2023-02-28T10:40:30;102297.22;;;5.85;53.45
19112;BME280;9688;51.906;8.376;2023-02-28T10:43:22;102294.53;;;5.80;53.60
19112;BME280;9688;51.906;8.376;2023-02-28T10:46:14;102290.22;;;5.86;54.86
19112;BME280;9688;51.906;8.376;2023-02-28T10:49:14;102300.81;;;5.93;53.74
19112;BME280;9688;51.906;8.376;2023-02-28T10:52:04;102299.00;;;5.91;54.81
19112;BME280;9688;51.906;8.376;2023-02-28T10:55:14;102286.00;;;6.01;54.56
19112;BME280;9688;51.906;8.376;2023-02-28T10:58:02;102282.59;;;6.18;54.70
19112;BME280;9688;51.906;8.376;2023-02-28T11:00:51;102284.34;;;6.20;55.51
19112;BME280;9688;51.906;8.376;2023-02-28T11:03:41;102278.31;;;6.29;55.12
19112;BME280;9688;51.906;8.376;2023-02-28T11:06:30;102278.25;;;6.26;55.29
19112;BME280;9688;51.906;8.376;2023-02-28T11:09:24;102276.44;;;6.14;55.51
19112;BME280;9688;51.906;8.376;2023-02-28T11:12:21;102269.31;;;5.98;55.48
19112;BME280;9688;51.906;8.376;2023-02-28T11:15:21;102269.25;;;5.89;55.65
19112;BME280;9688;51.906;8.376;2023-02-28T11:18:25;102275.47;;;5.97;55.81
19112;BME280;9688;51.906;8.376;2023-02-28T11:21:18;102272.88;;;6.06;56.32
19112;BME280;9688;51.906;8.376;2023-02-28T11:24:14;102270.38;;;6.26;55.23
19112;BME280;9688;51.906;8.376;2023-02-28T11:27:02;102276.66;;;6.50;55.15
19112;BME280;9688;51.906;8.376;2023-02-28T11:29:48;102272.34;;;6.62;55.06
19112;BME280;9688;51.906;8.376;2023-02-28T11:32:34;102257.47;;;6.63;54.54
19112;BME280;9688;51.906;8.376;2023-02-28T11:35:26;102246.97;;;6.75;54.51
19112;BME280;9688;51.906;8.376;2023-02-28T11:38:14;102276.78;;;6.80;54.09
19112;BME280;9688;51.906;8.376;2023-02-28T11:41:08;102260.13;;;6.78;53.94
19112;BME280;9688;51.906;8.376;2023-02-28T11:44:18;102261.88;;;6.68;53.74
19112;BME280;9688;51.906;8.376;2023-02-28T11:47:11;102250.44;;;6.63;53.70
19112;BME280;9688;51.906;8.376;2023-02-28T11:50:13;102247.81;;;6.60;54.10
19112;BME280;9688;51.906;8.376;2023-02-28T11:53:10;102255.69;;;6.54;54.00
19112;BME280;9688;51.906;8.376;2023-02-28T11:56:01;102240.75;;;6.47;54.38
19112;BME280;9688;51.906;8.376;2023-02-28T11:58:57;102241.63;;;6.47;53.92
19112;BME280;9688;51.906;8.376;2023-02-28T12:02:05;102239.03;;;6.52;53.73
19112;BME280;9688;51.906;8.376;2023-02-28T12:08:09;102227.63;;;6.50;53.81
19112;BME280;9688;51.906;8.376;2023-02-28T12:11:09;102225.91;;;6.55;53.60
19112;BME280;9688;51.906;8.376;2023-02-28T12:17:16;102210.22;;;6.77;53.10
19112;BME280;9688;51.906;8.376;2023-02-28T12:20:23;102206.69;;;6.81;53.32
19112;BME280;9688;51.906;8.376;2023-02-28T12:23:37;102214.56;;;6.75;53.42
19112;BME280;9688;51.906;8.376;2023-02-28T12:26:37;102197.94;;;6.80;53.06
19112;BME280;9688;51.906;8.376;2023-02-28T12:29:29;102203.22;;;6.89;52.55
19112;BME280;9688;51.906;8.376;2023-02-28T12:32:18;102201.47;;;6.82;53.17
19112;BME280;9688;51.906;8.376;2023-02-28T12:35:12;102211.88;;;6.59;53.86
19112;BME280;9688;51.906;8.376;2023-02-28T12:38:04;102209.19;;;6.45;54.39
19112;BME280;9688;51.906;8.376;2023-02-28T12:40:55;102207.41;;;6.31;55.02
19112;BME280;9688;51.906;8.376;2023-02-28T12:43:46;102209.13;;;6.24;54.85
19112;BME280;9688;51.906;8.376;2023-02-28T12:46:38;102206.41;;;6.09;55.10
19112;BME280;9688;51.906;8.376;2023-02-28T12:49:33;102198.53;;;6.10;54.04
19112;BME280;9688;51.906;8.376;2023-02-28T12:52:24;102188.97;;;6.26;53.84
19112;BME280;9688;51.906;8.376;2023-02-28T12:55:19;102192.53;;;6.37;54.29
19112;BME280;9688;51.906;8.376;2023-02-28T12:58:14;102200.44;;;6.42;54.13
19112;BME280;9688;51.906;8.376;2023-02-28T13:01:21;102182.09;;;6.50;53.38
19112;BME280;9688;51.906;8.376;2023-02-28T13:08:03;102163.75;;;6.76;52.58
19112;BME280;9688;51.906;8.376;2023-02-28T13:10:54;102152.41;;;6.87;52.48
19112;BME280;9688;51.906;8.376;2023-02-28T13:13:44;102162.91;;;6.86;52.65
19112;BME280;9688;51.906;8.376;2023-02-28T13:16:53;102152.41;;;6.89;52.30
19112;BME280;9688;51.906;8.376;2023-02-28T13:19:43;102156.78;;;7.01;51.99
19112;BME280;9688;51.906;8.376;2023-02-28T13:22:43;102150.66;;;7.08;51.68
19112;BME280;9688;51.906;8.376;2023-02-28T13:25:53;102151.53;;;7.25;51.55
19112;BME280;9688;51.906;8.376;2023-02-28T13:32:34;102152.44;;;7.33;51.10
19112;BME280;9688;51.906;8.376;2023-02-28T13:35:36;102153.31;;;7.40;50.67
19112;BME280;9688;51.906;8.376;2023-02-28T13:38:35;102155.06;;;7.46;50.33
19112;BME280;9688;51.906;8.376;2023-02-28T13:41:47;102159.44;;;7.50;50.32
19112;BME280;9688;51.906;8.376;2023-02-28T13:48:04;102140.13;;;7.37;50.55
19112;BME280;9688;51.906;8.376;2023-02-28T13:50:50;102132.25;;;7.34;50.77
19112;BME280;9688;51.906;8.376;2023-02-28T13:53:59;102134.00;;;7.43;50.42
19112;BME280;9688;51.906;8.376;2023-02-28T13:56:53;102135.75;;;7.45;49.90
19112;BME280;9688;51.906;8.376;2023-02-28T13:59:50;102130.50;;;7.51;49.78
19112;BME280;9688;51.906;8.376;2023-02-28T14:02:51;102129.59;;;7.51;49.86
19112;BME280;9688;51.906;8.376;2023-02-28T14:06:08;102138.41;;;7.48;49.87
19112;BME280;9688;51.906;8.376;2023-02-28T14:08:58;102134.88;;;7.54;49.94
19112;BME280;9688;51.906;8.376;2023-02-28T14:11:48;102131.38;;;7.49;49.62
19112;BME280;9688;51.906;8.376;2023-02-28T14:14:54;102127.84;;;7.50;49.46
19112;BME280;9688;51.906;8.376;2023-02-28T14:17:41;102134.00;;;7.49;49.74
19112;BME280;9688;51.906;8.376;2023-02-28T14:20:32;102134.88;;;7.49;49.62
19112;BME280;9688;51.906;8.376;2023-02-28T14:23:35;102125.22;;;7.45;49.33
19112;BME280;9688;51.906;8.376;2023-02-28T14:26:42;102119.97;;;7.45;49.71
19112;BME280;9688;51.906;8.376;2023-02-28T14:33:18;102113.84;;;7.42;49.95
19112;BME280;9688;51.906;8.376;2023-02-28T14:36:14;102112.97;;;7.41;50.67
19112;BME280;9688;51.906;8.376;2023-02-28T14:39:10;102114.72;;;7.41;50.60
19112;BME280;9688;51.906;8.376;2023-02-28T14:41:58;102110.34;;;7.36;50.39
19112;BME280;9688;51.906;8.376;2023-02-28T14:44:53;102107.69;;;7.36;50.82
19112;BME280;9688;51.906;8.376;2023-02-28T14:47:43;102105.97;;;7.35;50.73
19112;BME280;9688;51.906;8.376;2023-02-28T14:50:32;102105.94;;;7.34;51.09
19112;BME280;9688;51.906;8.376;2023-02-28T14:53:22;102097.19;;;7.36;50.86
19112;BME280;9688;51.906;8.376;2023-02-28T14:56:25;102095.41;;;7.34;51.43
19112;BME280;9688;51.906;8.376;2023-02-28T14:59:28;102095.41;;;7.34;51.32
19112;BME280;9688;51.906;8.376;2023-02-28T15:02:17;102095.41;;;7.34;51.57
19112;BME280;9688;51.906;8.376;2023-02-28T15:05:23;102104.22;;;7.22;51.82
19112;BME280;9688;51.906;8.376;2023-02-28T15:08:13;102114.72;;;7.11;51.34
19112;BME280;9688;51.906;8.376;2023-02-28T15:11:07;102113.84;;;6.91;52.09
19112;BME280;9688;51.906;8.376;2023-02-28T15:13:56;102119.97;;;6.90;51.92
19112;BME280;9688;51.906;8.376;2023-02-28T15:16:43;102114.72;;;6.88;52.16
19112;BME280;9688;51.906;8.376;2023-02-28T15:19:33;102109.47;;;6.81;51.94
19112;BME280;9688;51.906;8.376;2023-02-28T15:22:27;102114.72;;;6.75;52.57
19112;BME280;9688;51.906;8.376;2023-02-28T15:25:18;102114.69;;;6.73;52.42
19112;BME280;9688;51.906;8.376;2023-02-28T15:28:05;102119.06;;;6.73;52.54
19112;BME280;9688;51.906;8.376;2023-02-28T15:30:55;102120.84;;;6.72;52.27
19112;BME280;9688;51.906;8.376;2023-02-28T15:33:52;102117.34;;;6.72;52.22
19112;BME280;9688;51.906;8.376;2023-02-28T15:36:40;102118.22;;;6.72;52.55
19112;BME280;9688;51.906;8.376;2023-02-28T15:39:28;102119.09;;;6.68;52.20